createdAt,value
2022-11-24T00:01:15.595Z,10.80
2022-11-24T00:03:45.624Z,11.77
2022-11-24T00:06:15.295Z,11.77
2022-11-24T00:08:44.700Z,11.83
2022-11-24T00:11:14.869Z,11.23
2022-11-24T00:13:43.239Z,11.57
2022-11-24T00:16:13.329Z,10.67
2022-11-24T00:18:42.971Z,10.43
2022-11-24T00:21:12.876Z,10.60
2022-11-24T00:23:41.045Z,10.63
2022-11-24T00:26:10.578Z,9.67
2022-11-24T00:28:39.620Z,9.63
2022-11-24T00:31:17.486Z,10.63
2022-11-24T00:33:46.110Z,11.87
2022-11-24T00:36:15.921Z,12.60
2022-11-24T00:38:44.350Z,12.23
2022-11-24T00:41:12.939Z,11.40
2022-11-24T00:43:40.951Z,12.30
2022-11-24T00:46:08.955Z,10.87
2022-11-24T00:48:36.877Z,10.87
2022-11-24T00:51:07.165Z,10.80
2022-11-24T00:53:36.991Z,11.30
2022-11-24T00:56:05.161Z,11.43
2022-11-24T00:58:33.891Z,11.50
2022-11-24T01:01:04.635Z,11.27
2022-11-24T01:03:33.173Z,10.70
2022-11-24T01:06:05.120Z,11.03
2022-11-24T01:08:33.041Z,10.63
2022-11-24T01:11:14.039Z,10.53
2022-11-24T01:13:43.320Z,10.80
2022-11-24T01:16:19.347Z,11.00
2022-11-24T01:18:47.909Z,11.20
2022-11-24T01:21:16.825Z,12.40
2022-11-24T01:23:45.057Z,11.50
2022-11-24T01:26:16.764Z,11.40
2022-11-24T01:28:47.364Z,11.00
2022-11-24T01:31:16.504Z,12.37
2022-11-24T01:33:45.625Z,12.27
2022-11-24T01:36:13.801Z,10.70
2022-11-24T01:38:41.759Z,11.80
2022-11-24T01:41:12.770Z,12.13
2022-11-24T01:43:43.121Z,11.73
2022-11-24T01:46:24.118Z,11.97
2022-11-24T01:48:58.820Z,11.67
2022-11-24T01:51:30.626Z,11.20
2022-11-24T01:54:02.152Z,10.97
2022-11-24T01:56:32.219Z,11.53
2022-11-24T01:59:04.409Z,10.83
2022-11-24T02:01:33.044Z,10.27
2022-11-24T02:04:04.220Z,11.80
2022-11-24T02:06:34.285Z,10.40
2022-11-24T02:09:07.607Z,10.60
2022-11-24T02:11:38.208Z,9.83
2022-11-24T02:14:10.566Z,10.93
2022-11-24T02:16:40.199Z,9.97
2022-11-24T02:19:15.341Z,10.80
2022-11-24T02:21:43.331Z,9.17
2022-11-24T02:24:21.203Z,9.73
2022-11-24T02:26:51.958Z,10.10
2022-11-24T02:29:20.894Z,9.17
2022-11-24T02:31:52.296Z,8.73
2022-11-24T02:34:20.417Z,9.40
2022-11-24T02:36:48.404Z,8.23
2022-11-24T02:39:16.833Z,9.70
2022-11-24T02:41:49.481Z,8.43
2022-11-24T02:44:21.099Z,7.70
2022-11-24T02:46:49.001Z,8.10
2022-11-24T02:49:17.150Z,9.67
2022-11-24T02:51:45.051Z,8.97
2022-11-24T02:54:13.042Z,8.57
2022-11-24T02:56:40.931Z,9.40
2022-11-24T02:59:08.806Z,9.50
2022-11-24T03:01:38.079Z,8.70
2022-11-24T03:04:06.286Z,8.60
2022-11-24T03:06:34.196Z,9.47
2022-11-24T03:09:02.284Z,9.20
2022-11-24T03:11:30.497Z,10.43
2022-11-24T03:13:58.390Z,10.60
2022-11-24T03:16:26.387Z,9.90
2022-11-24T03:18:55.675Z,9.70
2022-11-24T03:21:23.578Z,9.90
2022-11-24T03:23:51.506Z,10.07
2022-11-24T03:26:21.204Z,8.73
2022-11-24T03:28:49.218Z,9.07
2022-11-24T03:31:17.212Z,9.03
2022-11-24T03:33:45.093Z,8.47
2022-11-24T03:36:14.297Z,9.40
2022-11-24T03:38:42.212Z,8.80
2022-11-24T03:41:10.361Z,9.87
2022-11-24T03:43:43.420Z,8.67
2022-11-24T03:46:12.294Z,9.07
2022-11-24T03:48:40.470Z,8.03
2022-11-24T03:51:08.507Z,8.63
2022-11-24T03:53:37.827Z,8.70
2022-11-24T03:56:06.755Z,8.30
2022-11-24T03:58:34.662Z,8.07
2022-11-24T04:01:02.537Z,8.33
2022-11-24T04:03:30.806Z,8.83
2022-11-24T04:05:58.739Z,7.57
2022-11-24T04:08:26.753Z,7.73
2022-11-24T04:10:56.122Z,8.13
2022-11-24T04:13:24.738Z,7.90
2022-11-24T04:15:52.963Z,8.17
2022-11-24T04:18:21.045Z,8.53
2022-11-24T04:20:51.424Z,7.17
2022-11-24T04:23:19.804Z,7.87
2022-11-24T04:25:47.731Z,7.43
2022-11-24T04:28:17.000Z,6.60
2022-11-24T04:30:45.407Z,7.47
2022-11-24T04:33:13.707Z,6.80
2022-11-24T04:35:41.652Z,6.27
2022-11-24T04:38:10.071Z,7.37
2022-11-24T04:40:38.585Z,7.13
2022-11-24T04:43:06.541Z,6.70
2022-11-24T04:45:35.822Z,7.37
2022-11-24T04:48:03.861Z,8.37
2022-11-24T04:50:31.961Z,7.13
2022-11-24T04:53:00.010Z,6.60
2022-11-24T04:55:27.894Z,6.23
2022-11-24T04:57:55.795Z,6.00
2022-11-24T05:00:23.762Z,6.07
2022-11-24T05:02:52.996Z,6.63
2022-11-24T05:05:20.914Z,6.37
2022-11-24T05:07:49.012Z,6.73
2022-11-24T05:10:35.231Z,6.83
2022-11-24T05:13:04.320Z,6.90
2022-11-24T05:15:32.493Z,6.93
2022-11-24T05:18:04.546Z,7.03
2022-11-24T05:20:32.438Z,7.73
2022-11-24T05:23:02.955Z,7.17
2022-11-24T05:25:32.696Z,7.47
2022-11-24T05:28:01.764Z,7.20
2022-11-24T05:30:29.753Z,6.77
2022-11-24T05:32:58.011Z,6.63
2022-11-24T05:35:27.276Z,6.77
2022-11-24T05:37:55.219Z,6.27
2022-11-24T05:40:23.219Z,6.37
2022-11-24T05:42:51.134Z,6.83
2022-11-24T05:45:21.682Z,7.73
2022-11-24T05:47:51.200Z,8.07
2022-11-24T05:50:21.619Z,7.63
2022-11-24T05:52:51.348Z,7.53
2022-11-24T05:55:20.523Z,7.87
2022-11-24T05:57:48.700Z,9.33
2022-11-24T06:00:19.993Z,7.33
2022-11-24T06:02:48.284Z,8.90
2022-11-24T06:05:16.429Z,8.70
2022-11-24T06:07:44.342Z,8.40
2022-11-24T06:10:13.667Z,8.50
2022-11-24T06:12:42.024Z,7.70
2022-11-24T06:15:11.333Z,8.03
2022-11-24T06:17:40.213Z,9.27
2022-11-24T06:20:10.159Z,8.83
2022-11-24T06:22:38.975Z,10.00
2022-11-24T06:25:07.583Z,10.00
2022-11-24T06:27:36.963Z,9.50
2022-11-24T06:30:05.501Z,8.60
2022-11-24T06:32:33.483Z,9.20
2022-11-24T06:35:01.345Z,8.83
2022-11-24T06:37:29.277Z,9.30
2022-11-24T06:39:57.203Z,9.77
2022-11-24T06:42:25.118Z,8.80
2022-11-24T06:44:54.334Z,10.33
2022-11-24T06:47:22.485Z,8.47
2022-11-24T06:49:50.422Z,8.60
2022-11-24T06:52:18.389Z,8.17
2022-11-24T06:54:46.311Z,8.47
2022-11-24T06:57:14.255Z,11.37
2022-11-24T06:59:42.175Z,9.30
2022-11-24T07:02:12.050Z,8.70
2022-11-24T07:04:40.090Z,8.13
2022-11-24T07:07:08.023Z,8.63
2022-11-24T07:09:35.962Z,8.67
2022-11-24T07:12:04.779Z,8.30
2022-11-24T07:14:33.633Z,8.50
2022-11-24T07:17:02.467Z,7.80
2022-11-24T07:19:31.915Z,7.73
2022-11-24T07:21:59.855Z,7.80
2022-11-24T07:24:27.768Z,6.53
2022-11-24T07:26:55.705Z,7.20
2022-11-24T07:29:23.659Z,7.63
2022-11-24T07:31:51.580Z,6.23
2022-11-24T07:34:19.557Z,7.53
2022-11-24T07:36:50.091Z,6.40
2022-11-24T07:39:18.300Z,5.90
2022-11-24T07:41:46.308Z,7.00
2022-11-24T07:44:14.253Z,7.47
2022-11-24T07:46:44.942Z,7.27
2022-11-24T07:49:12.849Z,7.87
2022-11-24T07:51:43.580Z,7.10
2022-11-24T07:54:13.124Z,11.43
2022-11-24T07:56:41.156Z,11.10
2022-11-24T07:59:09.180Z,10.87
2022-11-24T08:01:37.169Z,10.73
2022-11-24T08:04:05.588Z,8.43
2022-11-24T08:06:39.692Z,8.10
2022-11-24T08:09:09.965Z,7.73
2022-11-24T08:11:39.253Z,7.87
2022-11-24T08:14:07.292Z,6.57
2022-11-24T08:16:35.259Z,6.63
2022-11-24T08:19:03.355Z,6.83
2022-11-24T08:21:32.384Z,6.30
2022-11-24T08:24:00.367Z,7.57
2022-11-24T08:26:28.587Z,5.57
2022-11-24T08:28:59.807Z,6.20
2022-11-24T08:31:33.573Z,5.93
2022-11-24T08:34:02.945Z,4.57
2022-11-24T08:36:31.393Z,5.27
2022-11-24T08:39:00.755Z,4.47
2022-11-24T08:41:29.580Z,5.13
2022-11-24T08:43:59.056Z,4.20
2022-11-24T08:46:27.530Z,4.10
2022-11-24T08:48:56.299Z,4.67
2022-11-24T08:51:26.116Z,4.53
2022-11-24T08:53:56.620Z,3.80
2022-11-24T08:56:24.763Z,4.40
2022-11-24T08:58:52.685Z,4.07
2022-11-24T09:01:22.575Z,4.00
2022-11-24T09:03:52.164Z,3.47
2022-11-24T09:06:22.727Z,3.67
2022-11-24T09:08:51.281Z,3.47
2022-11-24T09:11:19.517Z,3.40
2022-11-24T09:13:50.328Z,3.73
2022-11-24T09:16:21.877Z,3.93
2022-11-24T09:18:56.181Z,3.63
2022-11-24T09:21:24.240Z,3.50
2022-11-24T09:23:54.397Z,4.13
2022-11-24T09:26:24.345Z,3.73
2022-11-24T09:28:54.468Z,3.30
2022-11-24T09:31:26.119Z,3.13
2022-11-24T09:33:54.471Z,3.90
2022-11-24T09:36:22.813Z,3.97
2022-11-24T09:38:50.920Z,3.30
2022-11-24T09:41:34.683Z,3.80
2022-11-24T09:44:08.882Z,3.83
2022-11-24T09:46:50.438Z,4.00
2022-11-24T09:52:02.357Z,4.43
2022-11-24T09:54:32.543Z,4.07
2022-11-24T09:57:06.007Z,4.73
2022-11-24T09:59:34.126Z,4.37
2022-11-24T10:02:02.649Z,5.10
2022-11-24T10:04:35.162Z,4.40
2022-11-24T10:07:13.579Z,3.53
2022-11-24T10:09:48.162Z,4.00
2022-11-24T10:12:24.897Z,4.20
2022-11-24T10:15:15.851Z,4.00
2022-11-24T10:18:17.244Z,4.13
2022-11-24T10:20:55.728Z,4.53
2022-11-24T10:23:43.763Z,3.80
2022-11-24T10:26:19.541Z,4.07
2022-11-24T10:28:54.146Z,4.40
2022-11-24T10:31:29.942Z,3.90
2022-11-24T10:34:04.498Z,4.70
2022-11-24T10:36:41.082Z,3.50
2022-11-24T10:39:18.394Z,2.80
2022-11-24T10:41:53.741Z,3.53
2022-11-24T10:44:21.822Z,4.23
2022-11-24T10:46:49.927Z,3.23
2022-11-24T10:49:23.043Z,3.30
2022-11-24T10:52:13.021Z,3.20
2022-11-24T10:54:56.762Z,3.30
2022-11-24T10:57:30.459Z,3.03
2022-11-24T10:59:58.358Z,3.33
2022-11-24T11:02:35.949Z,3.83
2022-11-24T11:05:35.092Z,2.33
2022-11-24T11:08:20.933Z,2.93
2022-11-24T11:10:51.737Z,2.40
2022-11-24T11:13:28.303Z,2.20
2022-11-24T11:15:57.690Z,2.43
2022-11-24T11:18:32.625Z,2.40
2022-11-24T11:21:02.947Z,2.20
2022-11-24T11:23:34.475Z,3.03
2022-11-24T11:26:33.994Z,2.53
2022-11-24T11:34:52.877Z,2.23
2022-11-24T11:37:22.179Z,2.60
2022-11-24T11:39:52.318Z,2.57
2022-11-24T11:43:00.033Z,2.70
2022-11-24T11:45:17.431Z,2.50
2022-11-24T11:47:51.663Z,2.50
2022-11-24T11:50:25.410Z,2.90
2022-11-24T11:53:06.232Z,2.53
2022-11-24T11:55:51.019Z,2.30
2022-11-24T11:59:14.272Z,2.60
2022-11-24T12:01:59.609Z,2.47
2022-11-24T12:04:41.303Z,2.43
2022-11-24T12:07:33.807Z,2.57
2022-11-24T12:10:12.845Z,2.17
2022-11-24T12:13:04.809Z,2.10
2022-11-24T12:15:38.861Z,1.90
2022-11-24T12:18:40.671Z,2.40
2022-11-24T12:21:15.039Z,2.67
2022-11-24T12:23:54.244Z,2.67
2022-11-24T12:26:29.261Z,2.57
2022-11-24T12:29:09.179Z,3.03
2022-11-24T12:31:53.515Z,2.43
2022-11-24T12:34:32.043Z,3.10
2022-11-24T12:37:13.096Z,2.20
2022-11-24T12:39:49.458Z,2.77
2022-11-24T12:42:31.211Z,2.73
2022-11-24T12:45:17.613Z,2.20
2022-11-24T12:48:11.285Z,2.53
2022-11-24T12:50:40.912Z,2.40
2022-11-24T12:53:15.909Z,2.50
2022-11-24T12:55:44.856Z,2.10
2022-11-24T12:58:21.117Z,2.30
2022-11-24T13:01:01.184Z,1.63
2022-11-24T13:03:45.161Z,2.13
2022-11-24T13:06:18.550Z,1.90
2022-11-24T13:08:47.174Z,2.43
2022-11-24T13:11:41.657Z,2.20
2022-11-24T13:14:18.782Z,2.17
2022-11-24T13:19:44.794Z,2.33
2022-11-24T13:22:19.337Z,2.27
2022-11-24T13:25:04.435Z,2.20
2022-11-24T13:27:44.722Z,2.10
2022-11-24T13:30:52.412Z,2.13
2022-11-24T13:33:31.415Z,2.00
2022-11-24T13:36:31.916Z,2.43
2022-11-24T13:39:01.068Z,2.50
2022-11-24T13:42:41.734Z,2.23
2022-11-24T13:45:00.436Z,2.33
2022-11-24T13:47:46.844Z,1.83
2022-11-24T13:50:46.465Z,2.50
2022-11-24T13:53:23.196Z,2.60
2022-11-24T13:55:58.335Z,1.90
2022-11-24T13:58:35.191Z,1.70
2022-11-24T14:01:15.657Z,1.90
2022-11-24T14:07:05.594Z,2.00
2022-11-24T14:09:43.179Z,2.57
2022-11-24T14:12:20.276Z,2.27
2022-11-24T14:14:49.952Z,1.83
2022-11-24T14:17:20.935Z,2.20
2022-11-24T14:19:50.755Z,2.20
2022-11-24T14:22:21.873Z,1.80
2022-11-24T14:24:56.315Z,2.10
2022-11-24T14:27:29.711Z,2.73
2022-11-24T14:29:59.320Z,2.00
2022-11-24T14:32:27.433Z,2.20
2022-11-24T14:34:56.807Z,2.10
2022-11-24T14:37:24.848Z,2.90
2022-11-24T14:39:55.147Z,2.47
2022-11-24T14:42:25.062Z,2.47
2022-11-24T14:44:55.706Z,1.90
2022-11-24T14:47:31.254Z,3.23
2022-11-24T14:50:10.390Z,2.20
2022-11-24T14:52:45.688Z,2.97
2022-11-24T14:55:27.760Z,2.40
2022-11-24T14:57:55.952Z,2.40
2022-11-24T15:00:29.605Z,2.47
2022-11-24T15:03:15.937Z,2.13
2022-11-24T15:05:55.689Z,2.30
2022-11-24T15:08:25.394Z,2.30
2022-11-24T15:11:00.287Z,2.70
2022-11-24T15:13:29.054Z,3.37
2022-11-24T15:16:02.977Z,3.53
2022-11-24T15:18:37.374Z,3.50
2022-11-24T15:21:05.352Z,3.33
2022-11-24T15:23:35.136Z,3.17
2022-11-24T15:26:30.712Z,3.37
2022-11-24T15:29:00.166Z,3.13
2022-11-24T15:31:28.084Z,4.30
2022-11-24T15:33:55.993Z,4.33
2022-11-24T15:36:24.071Z,4.30
2022-11-24T15:38:52.183Z,3.93
2022-11-24T15:41:22.007Z,3.50
2022-11-24T15:43:58.642Z,3.07
2022-11-24T15:46:27.375Z,2.70
2022-11-24T15:48:55.643Z,2.60
2022-11-24T15:51:26.581Z,2.70
2022-11-24T15:54:00.735Z,3.63
2022-11-24T15:56:32.144Z,3.73
2022-11-24T15:59:02.047Z,3.50
2022-11-24T16:01:32.420Z,3.73
2022-11-24T16:04:00.650Z,4.13
2022-11-24T16:06:28.626Z,3.93
2022-11-24T16:08:58.122Z,3.30
2022-11-24T16:11:26.242Z,3.37
2022-11-24T16:13:54.568Z,4.57
2022-11-24T16:16:25.547Z,4.53
2022-11-24T16:18:53.822Z,5.00
2022-11-24T16:21:21.840Z,4.80
2022-11-24T16:23:49.754Z,5.57
2022-11-24T16:26:17.691Z,4.90
2022-11-24T16:28:45.741Z,6.87
2022-11-24T16:31:15.803Z,5.40
2022-11-24T16:33:46.349Z,5.63
2022-11-24T16:36:14.974Z,7.17
2022-11-24T16:38:42.882Z,4.87
2022-11-24T16:41:11.569Z,5.70
2022-11-24T16:43:39.570Z,3.90
2022-11-24T16:46:21.393Z,3.80
2022-11-24T16:48:52.386Z,4.73
2022-11-24T16:51:22.137Z,4.87
2022-11-24T16:53:57.165Z,5.77
2022-11-24T16:56:25.092Z,5.50
2022-11-24T16:58:53.610Z,6.13
2022-11-24T17:01:22.104Z,5.63
2022-11-24T17:03:51.418Z,5.13
2022-11-24T17:06:19.664Z,5.97
2022-11-24T17:08:48.701Z,6.37
2022-11-24T17:11:18.449Z,5.60
2022-11-24T17:13:47.348Z,5.43
2022-11-24T17:16:16.622Z,5.13
2022-11-24T17:18:45.250Z,5.50
2022-11-24T17:21:16.067Z,5.47
2022-11-24T17:23:44.697Z,5.63
2022-11-24T17:26:15.898Z,5.80
2022-11-24T17:28:44.184Z,6.93
2022-11-24T17:31:18.991Z,6.07
2022-11-24T17:33:47.065Z,6.20
2022-11-24T17:36:16.736Z,6.97
2022-11-24T17:38:44.718Z,6.73
2022-11-24T17:41:12.940Z,6.33
2022-11-24T17:43:41.011Z,8.20
2022-11-24T17:46:13.417Z,6.50
2022-11-24T17:48:41.534Z,5.90
2022-11-24T17:51:12.830Z,6.90
2022-11-24T17:53:43.566Z,6.07
2022-11-24T17:56:14.681Z,6.40
2022-11-24T17:58:43.539Z,6.47
2022-11-24T18:01:12.450Z,8.20
2022-11-24T18:03:41.264Z,7.53
2022-11-24T18:06:11.415Z,8.60
2022-11-24T18:08:44.552Z,8.53
2022-11-24T18:11:17.162Z,7.43
2022-11-24T18:14:01.727Z,7.47
2022-11-24T18:16:31.189Z,7.00
2022-11-24T18:19:10.093Z,5.90
2022-11-24T18:21:39.356Z,6.20
2022-11-24T18:24:12.858Z,7.53
2022-11-24T18:26:41.838Z,7.23
2022-11-24T18:29:11.071Z,6.87
2022-11-24T18:31:39.596Z,10.53
2022-11-24T18:34:08.169Z,18.30
2022-11-24T18:36:36.714Z,8.77
2022-11-24T18:39:05.877Z,6.07
2022-11-24T18:41:35.421Z,5.33
2022-11-24T18:44:07.545Z,6.10
2022-11-24T18:46:35.499Z,6.40
2022-11-24T18:49:03.527Z,5.43
2022-11-24T18:51:31.470Z,6.73
2022-11-24T18:53:59.369Z,6.47
2022-11-24T18:56:27.659Z,7.57
2022-11-24T18:58:57.565Z,7.30
2022-11-24T19:01:26.741Z,8.17
2022-11-24T19:03:56.737Z,8.00
2022-11-24T19:06:28.728Z,10.03
2022-11-24T19:08:57.229Z,10.37
2022-11-24T19:11:28.043Z,10.43
2022-11-24T19:13:57.842Z,10.83
2022-11-24T19:16:26.578Z,10.90
2022-11-24T19:18:59.911Z,10.83
2022-11-24T19:21:28.418Z,11.47
2022-11-24T19:24:01.246Z,9.23
2022-11-24T19:26:32.322Z,6.43
2022-11-24T19:29:01.859Z,7.17
2022-11-24T19:31:29.886Z,7.40
2022-11-24T19:33:59.690Z,6.60
2022-11-24T19:36:27.802Z,6.23
2022-11-24T19:38:56.832Z,6.07
2022-11-24T19:41:26.758Z,6.70
2022-11-24T19:43:55.552Z,7.43
2022-11-24T19:46:27.164Z,8.40
2022-11-24T19:48:57.059Z,7.97
2022-11-24T19:51:27.106Z,7.67
2022-11-24T19:53:55.643Z,8.10
2022-11-24T19:56:25.575Z,7.40
2022-11-24T19:58:54.758Z,7.70
2022-11-24T20:01:25.989Z,7.23
2022-11-24T20:03:58.812Z,7.43
2022-11-24T20:06:28.048Z,7.70
2022-11-24T20:08:56.261Z,7.43
2022-11-24T20:11:24.470Z,7.53
2022-11-24T20:13:53.540Z,7.70
2022-11-24T20:16:26.170Z,7.47
2022-11-24T20:18:57.964Z,7.87
2022-11-24T20:21:28.550Z,7.60
2022-11-24T20:23:59.061Z,7.82
2022-11-24T20:26:30.328Z,8.17
2022-11-24T20:28:59.681Z,7.17
2022-11-24T20:31:29.682Z,7.63
2022-11-24T20:34:00.496Z,7.70
2022-11-24T20:36:30.847Z,7.13
2022-11-24T20:39:01.057Z,6.83
2022-11-24T20:41:31.340Z,7.07
2022-11-24T20:44:03.798Z,6.67
2022-11-24T20:46:33.526Z,5.90
2022-11-24T20:49:14.443Z,6.50
2022-11-24T20:51:44.115Z,6.37
2022-11-24T20:54:21.479Z,6.83
2022-11-24T20:56:50.113Z,6.03
2022-11-24T20:59:22.829Z,6.10
2022-11-24T21:02:01.905Z,6.00
2022-11-24T21:04:35.138Z,7.03
2022-11-24T21:07:06.946Z,9.17
2022-11-24T21:09:42.097Z,8.43
2022-11-24T21:12:10.076Z,8.00
2022-11-24T21:14:38.308Z,6.87
2022-11-24T21:17:06.865Z,7.40
2022-11-24T21:19:37.496Z,6.97
2022-11-24T21:22:05.460Z,8.23
2022-11-24T21:24:40.869Z,8.70
2022-11-24T21:27:08.845Z,8.93
2022-11-24T21:29:42.668Z,8.83
2022-11-24T21:32:13.006Z,6.57
2022-11-24T21:34:42.683Z,7.60
2022-11-24T21:37:10.659Z,6.57
2022-11-24T21:39:38.749Z,6.73
2022-11-24T21:42:07.367Z,6.70
2022-11-24T21:44:35.554Z,7.57
2022-11-24T21:47:04.317Z,7.53
2022-11-24T21:49:32.698Z,6.70
2022-11-24T21:52:02.045Z,7.27
2022-11-24T21:54:29.974Z,7.57
2022-11-24T21:56:57.851Z,6.63
2022-11-24T21:59:25.825Z,6.40
2022-11-24T22:01:53.979Z,6.83
2022-11-24T22:04:21.972Z,6.90
2022-11-24T22:06:50.239Z,6.20
2022-11-24T22:09:19.550Z,7.00
2022-11-24T22:11:49.152Z,5.97
2022-11-24T22:14:17.204Z,6.13
2022-11-24T22:16:45.215Z,6.27
2022-11-24T22:19:13.153Z,6.27
2022-11-24T22:21:41.141Z,5.57
2022-11-24T22:24:09.692Z,5.87
2022-11-24T22:26:39.105Z,6.27
2022-11-24T22:29:07.756Z,6.47
2022-11-24T22:31:35.802Z,6.20
2022-11-24T22:34:04.004Z,6.23
2022-11-24T22:36:32.422Z,6.60
2022-11-24T22:39:03.369Z,5.77
2022-11-24T22:41:32.832Z,6.60
2022-11-24T22:44:02.240Z,7.27
2022-11-24T22:46:32.380Z,7.23
2022-11-24T22:49:01.713Z,6.87
2022-11-24T22:51:31.227Z,7.50
2022-11-24T22:54:01.160Z,7.70
2022-11-24T22:56:32.163Z,8.00
2022-11-24T22:59:02.432Z,9.20
2022-11-24T23:01:35.454Z,7.57
2022-11-24T23:04:03.904Z,8.83
2022-11-24T23:06:33.524Z,9.53
2022-11-24T23:09:02.629Z,7.73
2022-11-24T23:11:37.420Z,8.13
2022-11-24T23:14:09.168Z,7.80
2022-11-24T23:16:37.284Z,8.03
2022-11-24T23:19:05.709Z,7.40
2022-11-24T23:21:35.214Z,8.03
2022-11-24T23:24:04.895Z,7.43
2022-11-24T23:26:35.308Z,6.97
2022-11-24T23:29:04.013Z,7.90
2022-11-24T23:31:33.899Z,7.10
2022-11-24T23:34:03.477Z,6.57
2022-11-24T23:36:33.872Z,6.63
2022-11-24T23:39:05.768Z,7.40
2022-11-24T23:41:48.926Z,6.90
2022-11-24T23:44:16.822Z,6.67
2022-11-24T23:46:46.154Z,6.20
2022-11-24T23:49:15.188Z,6.83
2022-11-24T23:51:43.113Z,6.27
2022-11-24T23:54:11.180Z,7.60
2022-11-24T23:56:39.478Z,8.00
2022-11-24T23:59:07.396Z,8.23
